Time;durP1;ratioP1;P1;durP2;ratioP2;P2;SDS_P1;SDS_P2;PMS_P1;PMS_P2;Temp;Humidity;BMP_temperature;BMP_pressure;BME280_temperature;BME280_humidity;BME280_pressure;Samples;Min_cycle;Max_cycle;Signal;HPM_P1;HPM_P2
2022/08/04 00:00:52;;;;;;;;;;;21.50;99.90;;;;;;4996985;28;20487;-75
2022/08/04 00:03:21;;;;;;;13.25;7.03;;;21.40;99.90;;;;;;4980219;28;19979;-75
2022/08/04 00:05:59;;;;;;;15.57;7.25;;;21.40;99.90;;;;;;4997207;28;20046;-75
2022/08/04 00:08:43;;;;;;;15.88;7.55;;;21.40;99.90;;;;;;4996382;28;20100;-75
2022/08/04 00:11:12;;;;;;;14.75;7.03;;;21.40;99.90;;;;;;4996012;28;20058;-74
2022/08/04 00:13:41;;;;;;;16.85;7.25;;;21.50;99.90;;;;;;4996229;28;20057;-75
2022/08/04 00:16:11;;;;;;;14.95;7.18;;;21.50;99.90;;;;;;4995919;28;20058;-75
2022/08/04 00:18:44;;;;;;;12.27;7.20;;;21.40;99.90;;;;;;4996246;28;20042;-75
2022/08/04 00:21:14;;;;;;;14.73;7.20;;;21.40;99.90;;;;;;4996072;28;20545;-75
2022/08/04 00:23:43;;;;;;;15.77;7.63;;;21.40;99.90;;;;;;4995856;28;20054;-75
2022/08/04 00:26:09;;;;;;;18.83;8.35;;;21.40;99.90;;;;;;4995272;28;20047;-75
2022/08/04 00:28:39;;;;;;;19.33;7.93;;;21.40;99.90;;;;;;4995952;28;20132;-75
2022/08/04 00:31:08;;;;;;;16.90;8.05;;;21.40;99.90;;;;;;4996909;28;20046;-75
2022/08/04 00:33:36;;;;;;;14.70;8.43;;;21.30;99.90;;;;;;4995704;28;20132;-75
2022/08/04 00:36:02;;;;;;;17.02;8.38;;;21.40;99.90;;;;;;4996084;28;20039;-74
2022/08/04 00:38:29;;;;;;;16.85;8.77;;;21.30;99.90;;;;;;4979631;28;20054;-75
2022/08/04 00:41:32;;;;;;;15.05;8.27;;;21.30;99.90;;;;;;4996837;28;20442;-75
2022/08/04 00:44:16;;;;;;;17.00;9.65;;;21.20;99.90;;;;;;4995392;28;20042;-75
2022/08/04 00:47:06;;;;;;;16.08;8.60;;;21.20;99.90;;;;;;4995995;28;20057;-74
2022/08/04 00:50:04;;;;;;;17.50;9.10;;;21.30;99.90;;;;;;4996141;28;20077;-75
2022/08/04 00:52:43;;;;;;;17.50;9.05;;;21.20;99.90;;;;;;4995607;28;20657;-75
2022/08/04 00:55:50;;;;;;;17.42;8.02;;;21.10;99.90;;;;;;4996484;28;20081;-75
2022/08/04 00:58:28;;;;;;;17.52;9.05;;;21.20;99.90;;;;;;4995689;28;20042;-75
2022/08/04 01:00:58;;;;;;;16.25;7.78;;;21.10;99.90;;;;;;4996981;28;20057;-74
2022/08/04 01:03:44;;;;;;;14.75;8.73;;;21.10;99.90;;;;;;4978928;28;20042;-74
2022/08/04 01:06:40;;;;;;;16.23;8.57;;;21.10;99.90;;;;;;4995550;28;20049;-74
2022/08/04 01:09:06;;;;;;;18.15;8.20;;;21.00;99.90;;;;;;4969776;28;20152;-75
2022/08/04 01:12:16;;;;;;;14.13;8.43;;;21.00;99.90;;;;;;4996720;28;20416;-75
2022/08/04 01:14:57;;;;;;;17.13;7.95;;;20.90;99.90;;;;;;4996676;28;20050;-75
2022/08/04 01:17:34;;;;;;;18.52;8.90;;;20.90;99.90;;;;;;4979029;28;20445;-75
2022/08/04 01:20:06;;;;;;;14.52;7.78;;;20.90;99.90;;;;;;4994900;28;20050;-77
2022/08/04 01:22:32;;;;;;;17.00;8.95;;;20.90;99.90;;;;;;4995622;28;20510;-74
2022/08/04 01:25:16;;;;;;;14.18;7.68;;;20.90;99.90;;;;;;4994940;28;20058;-74
2022/08/04 01:27:50;;;;;;;15.88;8.00;;;20.80;99.90;;;;;;4995697;28;20104;-74
2022/08/04 01:30:17;;;;;;;14.65;8.63;;;20.80;99.90;;;;;;4995595;28;20046;-75
2022/08/04 01:32:51;;;;;;;17.52;8.55;;;20.70;99.90;;;;;;4979010;28;20056;-74
2022/08/04 01:35:49;;;;;;;17.55;8.20;;;20.70;99.90;;;;;;4978851;28;20128;-74
2022/08/04 01:38:36;;;;;;;14.00;8.10;;;20.70;99.90;;;;;;4978948;28;20384;-75
2022/08/04 01:41:07;;;;;;;16.50;8.23;;;20.70;99.90;;;;;;4995401;28;20050;-75
2022/08/04 01:43:41;;;;;;;14.95;8.25;;;20.70;99.90;;;;;;4995441;28;20050;-74
2022/08/04 01:46:13;;;;;;;13.05;7.55;;;20.70;99.90;;;;;;4996432;28;20058;-75
2022/08/04 01:48:41;;;;;;;13.35;7.47;;;20.60;99.90;;;;;;4996062;28;20085;-75
2022/08/04 01:51:08;;;;;;;17.23;8.57;;;20.70;99.90;;;;;;4978759;28;20137;-75
2022/08/04 01:53:39;;;;;;;14.20;7.60;;;20.50;99.90;;;;;;4994174;28;20062;-75
2022/08/04 01:56:08;;;;;;;17.13;8.48;;;20.60;99.90;;;;;;4994260;28;20525;-75
2022/08/04 01:58:35;;;;;;;13.40;8.20;;;20.60;99.90;;;;;;4994068;28;20054;-74
2022/08/04 02:01:11;;;;;;;17.00;8.23;;;20.60;99.90;;;;;;4994256;28;20054;-74
2022/08/04 02:03:40;;;;;;;16.90;8.35;;;20.60;99.90;;;;;;4994082;28;20046;-75
2022/08/04 02:06:21;;;;;;;14.77;8.35;;;20.50;99.90;;;;;;4977989;28;20092;-74
2022/08/04 02:09:02;;;;;;;14.93;8.13;;;20.50;99.90;;;;;;4978239;28;20047;-74
2022/08/04 02:11:30;;;;;;;16.70;8.55;;;20.50;99.90;;;;;;4977146;28;20058;-75
2022/08/04 02:14:11;;;;;;;14.93;8.02;;;20.40;99.90;;;;;;4994212;28;20426;-74
2022/08/04 02:16:48;;;;;;;13.50;7.80;;;20.40;99.90;;;;;;4995535;28;20050;-75
2022/08/04 02:19:34;;;;;;;16.60;8.50;;;20.40;99.90;;;;;;4977756;28;20054;-73
2022/08/04 02:22:07;;;;;;;13.40;7.10;;;20.40;99.90;;;;;;4994121;28;20446;-74
2022/08/04 02:24:42;;;;;;;16.77;8.60;;;20.40;99.90;;;;;;4961910;28;20051;-74
2022/08/04 02:27:09;;;;;;;19.50;8.20;;;20.40;99.90;;;;;;4995650;28;20391;-74
2022/08/04 02:29:44;;;;;;;16.27;8.00;;;20.20;99.90;;;;;;4994494;28;20509;-75
2022/08/04 02:32:18;;;;;;;15.55;7.80;;;20.30;99.90;;;;;;4977788;28;20054;-74
2022/08/04 02:34:53;;;;;;;16.00;8.70;;;20.30;99.90;;;;;;4995281;28;20467;-75
2022/08/04 02:37:20;;;;;;;15.65;7.60;;;20.30;99.90;;;;;;4993872;28;20057;-75
2022/08/04 02:39:51;;;;;;;16.55;7.90;;;20.30;99.90;;;;;;4994398;28;20446;-75
2022/08/04 02:42:17;;;;;;;16.05;8.52;;;20.20;99.90;;;;;;4995113;28;20047;-75
2022/08/04 02:44:49;;;;;;;13.88;8.32;;;20.20;99.90;;;;;;4995381;28;20100;-74
2022/08/04 02:47:20;;;;;;;13.63;8.43;;;20.20;99.90;;;;;;4994471;28;20386;-74
2022/08/04 02:49:49;;;;;;;14.63;7.97;;;20.20;99.90;;;;;;4994834;28;20058;-74
2022/08/04 02:52:17;;;;;;;17.55;7.70;;;20.10;99.90;;;;;;4993216;28;20501;-75
2022/08/04 02:54:44;;;;;;;14.52;7.88;;;20.10;99.90;;;;;;4994434;28;20084;-74
2022/08/04 02:57:14;;;;;;;13.27;8.18;;;20.10;99.90;;;;;;4994450;28;20407;-74
2022/08/04 03:00:11;;;;;;;15.77;8.50;;;20.10;99.90;;;;;;4961489;28;20109;-74
2022/08/04 03:03:21;;;;;;;11.05;7.53;;;20.00;99.90;;;;;;4992519;28;20062;-74
2022/08/04 03:06:02;;;;;;;17.73;8.48;;;20.00;99.90;;;;;;4919151;29;20091;-74
2022/08/04 03:08:43;;;;;;;13.45;8.30;;;19.90;99.90;;;;;;4935080;29;20051;-74
2022/08/04 03:11:18;;;;;;;12.25;7.70;;;20.00;99.90;;;;;;4964361;28;20062;-74
2022/08/04 03:14:04;;;;;;;15.10;8.35;;;20.00;99.90;;;;;;4993984;28;20466;-74
2022/08/04 03:17:01;;;;;;;11.65;7.15;;;20.00;99.90;;;;;;4994088;28;20062;-73
2022/08/04 03:19:39;;;;;;;16.25;8.30;;;19.90;99.90;;;;;;4993974;28;20051;-74
2022/08/04 03:22:20;;;;;;;17.70;8.52;;;19.90;99.90;;;;;;4994797;28;20069;-74
2022/08/04 03:25:13;;;;;;;15.85;8.25;;;20.00;99.90;;;;;;4994952;28;20435;-74
2022/08/04 03:28:00;;;;;;;16.25;8.77;;;19.90;99.90;;;;;;4993178;28;20415;-74
2022/08/04 03:30:34;;;;;;;15.90;8.98;;;20.00;99.90;;;;;;4994838;28;20042;-74
2022/08/04 03:33:03;;;;;;;11.13;8.05;;;19.90;99.90;;;;;;4992981;28;20050;-74
2022/08/04 03:35:40;;;;;;;14.02;8.20;;;20.00;99.90;;;;;;4993767;28;20390;-74
2022/08/04 03:38:18;;;;;;;13.43;7.63;;;19.90;99.90;;;;;;4993696;28;20089;-74
2022/08/04 03:41:05;;;;;;;13.50;8.15;;;19.90;99.90;;;;;;4993795;28;20336;-74
2022/08/04 03:43:52;;;;;;;12.43;7.85;;;19.90;99.90;;;;;;4994030;28;20127;-75
2022/08/04 03:46:45;;;;;;;15.40;7.53;;;19.80;99.90;;;;;;4993784;28;20366;-74
2022/08/04 03:49:14;;;;;;;11.90;7.30;;;19.80;99.90;;;;;;4993711;28;20355;-74
2022/08/04 03:54:52;;;;;;;14.20;7.45;;;19.80;99.90;;;;;;4993084;28;20434;-74
2022/08/04 03:57:29;;;;;;;11.07;7.22;;;19.80;99.90;;;;;;4992696;28;20046;-74
2022/08/04 04:00:11;;;;;;;12.55;6.97;;;19.70;99.90;;;;;;4978640;28;20405;-75
2022/08/04 04:02:59;;;;;;;15.43;7.78;;;19.70;99.90;;;;;;4996837;28;20050;-74
2022/08/04 04:05:55;;;;;;;13.77;7.70;;;19.70;99.90;;;;;;4996292;28;20046;-74
2022/08/04 04:08:48;;;;;;;14.75;7.93;;;19.70;99.90;;;;;;4997392;28;20049;-74
2022/08/04 04:11:17;;;;;;;13.23;7.97;;;19.70;99.90;;;;;;4997270;28;20446;-74
2022/08/04 04:14:04;;;;;;;12.88;7.93;;;19.70;99.90;;;;;;4996986;28;20058;-75
2022/08/04 04:16:45;;;;;;;14.95;7.85;;;19.70;99.90;;;;;;4996344;28;20448;-75
2022/08/04 04:19:28;;;;;;;14.70;7.60;;;19.70;99.90;;;;;;4997223;28;20124;-74
2022/08/04 04:22:07;;;;;;;16.55;7.53;;;19.70;99.90;;;;;;4995915;28;20046;-75
2022/08/04 04:24:43;;;;;;;14.05;7.00;;;19.70;99.90;;;;;;4997184;28;20470;-75
2022/08/04 04:27:14;;;;;;;12.38;7.22;;;19.70;99.90;;;;;;4996192;28;20466;-75
2022/08/04 04:30:12;;;;;;;12.27;7.28;;;19.70;99.90;;;;;;4996431;28;20089;-75
2022/08/04 04:33:11;;;;;;;14.88;8.13;;;19.80;99.90;;;;;;4961290;28;20054;-75
2022/08/04 04:35:42;;;;;;;10.88;7.32;;;19.80;99.90;;;;;;4996418;28;20049;-75
2022/08/04 04:38:39;;;;;;;13.60;7.95;;;19.80;99.90;;;;;;4980170;28;20443;-75
2022/08/04 04:41:14;;;;;;;12.85;8.00;;;19.80;99.90;;;;;;4979959;28;20038;-75
2022/08/04 04:44:02;;;;;;;12.32;7.80;;;19.70;99.90;;;;;;4995824;28;20136;-75
2022/08/04 04:46:49;;;;;;;15.10;7.85;;;19.90;99.90;;;;;;4997563;28;20042;-75
2022/08/04 04:49:17;;;;;;;11.90;8.05;;;19.90;99.90;;;;;;4996841;28;20038;-74
2022/08/04 04:51:59;;;;;;;15.35;8.27;;;19.90;99.90;;;;;;4979383;28;20072;-75
2022/08/04 04:54:39;;;;;;;13.55;8.68;;;20.00;99.90;;;;;;4995655;28;20057;-75
2022/08/04 04:57:09;;;;;;;15.48;9.07;;;19.90;99.90;;;;;;4996497;28;20092;-75
2022/08/04 04:59:44;;;;;;;14.00;8.07;;;20.00;99.90;;;;;;4995571;28;20078;-74
2022/08/04 05:02:35;;;;;;;14.38;8.35;;;20.00;99.90;;;;;;4995417;28;20058;-74
2022/08/04 05:05:21;;;;;;;16.80;8.55;;;20.10;99.90;;;;;;4991508;28;20058;-75
2022/08/04 05:07:51;;;;;;;17.90;9.38;;;20.10;99.90;;;;;;4996183;28;20459;-74
2022/08/04 05:10:17;;;;;;;16.17;9.48;;;20.10;99.90;;;;;;4978979;28;20050;-74
2022/08/04 05:13:05;;;;;;;13.23;8.82;;;20.20;99.90;;;;;;4994751;28;20545;-75
2022/08/04 05:15:34;;;;;;;17.85;9.52;;;20.20;99.90;;;;;;4979253;28;20058;-75
2022/08/04 05:18:03;;;;;;;13.70;9.05;;;20.40;99.90;;;;;;4994990;28;20052;-74
2022/08/04 05:20:43;;;;;;;17.83;9.15;;;20.30;99.90;;;;;;4996006;28;20042;-75
2022/08/04 05:23:18;;;;;;;17.83;9.32;;;20.40;99.90;;;;;;4996125;28;20047;-74
2022/08/04 05:25:46;;;;;;;17.48;9.05;;;20.40;99.90;;;;;;4978820;28;20073;-75
2022/08/04 05:28:18;;;;;;;15.48;8.88;;;20.40;99.90;;;;;;4978771;28;20039;-75
2022/08/04 05:30:49;;;;;;;;;;;20.50;99.90;;;;;;4995698;28;20078;-75
2022/08/04 05:33:24;;;;;;;18.45;8.98;;;20.40;99.90;;;;;;4979016;28;19964;-75
2022/08/04 05:35:55;;;;;;;16.80;8.27;;;20.50;99.90;;;;;;4979520;28;20112;-75
2022/08/04 05:38:25;;;;;;;14.45;8.32;;;20.50;99.90;;;;;;4995863;28;20438;-75
2022/08/04 05:40:53;;;;;;;14.70;8.13;;;20.60;99.90;;;;;;4995596;28;20453;-75
2022/08/04 05:43:21;;;;;;;13.93;7.80;;;20.60;99.90;;;;;;4994587;28;20121;-75
2022/08/04 05:45:47;;;;;;;12.93;6.90;;;20.70;99.90;;;;;;4995444;28;20053;-75
2022/08/04 05:48:14;;;;;;;11.57;6.60;;;20.80;99.90;;;;;;4994570;28;20050;-75
2022/08/04 05:50:40;;;;;;;14.63;7.90;;;20.80;99.90;;;;;;4994739;28;20046;-75
2022/08/04 05:53:08;;;;;;;13.45;7.20;;;20.80;99.90;;;;;;4994531;28;20054;-75
2022/08/04 05:55:34;;;;;;;12.05;6.80;;;20.80;99.90;;;;;;4995416;28;20085;-75
2022/08/04 05:58:01;;;;;;;12.98;8.07;;;20.90;99.90;;;;;;4994519;28;20474;-75
2022/08/04 06:00:28;;;;;;;15.10;8.52;;;20.90;99.90;;;;;;4994237;28;20069;-76
2022/08/04 06:02:56;;;;;;;15.85;8.63;;;20.90;99.90;;;;;;4978106;28;20523;-76
2022/08/04 06:05:23;;;;;;;12.68;8.13;;;20.90;99.90;;;;;;4994707;28;20390;-75
2022/08/04 06:07:49;;;;;;;15.10;8.82;;;20.90;99.90;;;;;;4993988;28;20185;-75
2022/08/04 06:10:15;;;;;;;11.77;7.07;;;21.00;99.90;;;;;;4994940;28;20530;-75
2022/08/04 06:12:50;;;;;;;15.18;8.00;;;21.00;99.90;;;;;;4995669;28;20080;-76
2022/08/04 06:15:19;;;;;;;13.88;8.20;;;21.00;99.90;;;;;;4995107;28;20088;-76
2022/08/04 06:17:51;;;;;;;14.57;8.32;;;21.10;99.90;;;;;;4993737;28;20037;-75
2022/08/04 06:20:18;;;;;;;;;;;21.10;99.90;;;;;;4995319;28;20065;-75
2022/08/04 06:22:47;;;;;;;15.05;8.70;;;21.10;99.90;;;;;;4994476;28;19917;-75
2022/08/04 06:25:21;;;;;;;14.68;8.57;;;21.10;99.90;;;;;;4993359;28;20359;-75
2022/08/04 06:27:48;;;;;;;16.05;8.35;;;21.10;99.90;;;;;;4994212;28;20050;-75
2022/08/04 06:30:15;;;;;;;13.10;6.75;;;21.20;99.90;;;;;;4994810;28;20069;-75
2022/08/04 06:32:47;;;;;;;13.02;6.35;;;21.30;99.90;;;;;;4961548;28;20060;-75
2022/08/04 06:35:16;;;;;;;12.13;6.15;;;21.30;99.90;;;;;;4993750;28;20455;-75
2022/08/04 06:37:42;;;;;;;10.65;6.00;;;21.30;99.90;;;;;;4994360;28;20038;-74
2022/08/04 06:40:13;;;;;;;11.77;6.55;;;21.40;99.90;;;;;;4993731;28;20050;-76
2022/08/04 06:42:40;;;;;;;13.05;5.68;;;21.50;99.90;;;;;;4994702;28;20117;-76
2022/08/04 06:45:08;;;;;;;11.05;6.25;;;21.50;99.90;;;;;;4995159;28;20042;-75
2022/08/04 06:47:36;;;;;;;14.05;6.07;;;21.60;99.90;;;;;;4995120;28;20426;-76
2022/08/04 06:50:04;;;;;;;10.80;6.43;;;21.70;99.90;;;;;;4977511;28;20502;-75
2022/08/04 06:52:30;;;;;;;14.35;6.80;;;21.70;99.90;;;;;;4993067;28;20053;-76
2022/08/04 06:54:56;;;;;;;15.10;7.18;;;21.80;99.90;;;;;;4994408;28;20050;-76
2022/08/04 06:57:25;;;;;;;12.98;5.97;;;21.90;99.90;;;;;;4977549;28;20046;-76
2022/08/04 07:00:09;;;;;;;14.93;6.45;;;22.00;99.90;;;;;;4977415;28;20054;-75
2022/08/04 07:02:50;;;;;;;10.98;5.75;;;22.10;99.90;;;;;;4993643;28;20517;-78
2022/08/04 07:05:16;;;;;;;9.25;4.88;;;22.20;99.90;;;;;;4994153;28;20438;-79
2022/08/04 07:07:43;;;;;;;13.93;4.95;;;22.20;99.90;;;;;;4993246;28;20050;-78
2022/08/04 07:10:10;;;;;;;10.70;5.22;;;22.30;99.90;;;;;;4992994;28;20104;-78
2022/08/04 07:12:38;;;;;;;15.95;4.85;;;22.40;99.90;;;;;;4993461;28;20513;-78
2022/08/04 07:15:06;;;;;;;8.02;4.30;;;22.40;99.90;;;;;;4977095;28;20054;-78
2022/08/04 07:17:34;;;;;;;10.18;4.93;;;22.50;99.90;;;;;;4993467;28;20049;-79
2022/08/04 07:20:01;;;;;;;10.52;4.80;;;22.50;99.90;;;;;;4993259;28;20053;-79
2022/08/04 07:22:27;;;;;;;10.80;4.68;;;22.60;99.90;;;;;;4993265;28;20042;-79
2022/08/04 07:24:55;;;;;;;10.50;3.88;;;22.60;99.90;;;;;;4977123;28;20144;-80
2022/08/04 07:27:21;;;;;;;6.65;3.67;;;22.70;99.90;;;;;;4993007;28;20556;-83
2022/08/04 07:29:50;;;;;;;9.30;3.97;;;22.70;99.90;;;;;;4977300;28;20058;-80
2022/08/04 07:32:19;;;;;;;7.78;3.42;;;22.80;99.90;;;;;;4977884;28;20050;-81
2022/08/04 07:34:47;;;;;;;8.13;3.88;;;22.80;99.90;;;;;;4994466;28;20051;-79
2022/08/04 07:37:14;;;;;;;8.10;3.65;;;22.80;99.90;;;;;;4997312;28;20058;-80
2022/08/04 07:39:43;;;;;;;7.25;3.30;;;22.90;99.90;;;;;;4997082;28;20136;-81
2022/08/04 07:42:09;;;;;;;5.93;2.80;;;22.90;99.90;;;;;;4997223;28;20050;-79
2022/08/04 07:44:35;;;;;;;9.20;4.63;;;22.90;99.90;;;;;;4997944;28;20046;-82
2022/08/04 07:47:03;;;;;;;9.57;4.03;;;23.00;99.90;;;;;;4996738;28;20046;-83
2022/08/04 07:49:29;;;;;;;8.82;2.95;;;23.00;99.90;;;;;;4996930;28;20054;-81
2022/08/04 07:51:55;;;;;;;5.72;2.60;;;23.10;99.90;;;;;;4981357;28;20051;-82
2022/08/04 07:54:21;;;;;;;6.53;3.65;;;23.20;99.90;;;;;;4981507;28;20050;-82
2022/08/04 07:56:48;;;;;;;6.43;2.70;;;23.30;99.90;;;;;;4996984;28;20104;-79
2022/08/04 07:59:15;;;;;;;7.43;2.92;;;23.40;99.90;;;;;;4980355;28;20132;-79
2022/08/04 08:01:41;;;;;;;8.48;2.63;;;23.40;99.90;;;;;;4997450;28;20387;-79
2022/08/04 08:04:09;;;;;;;7.32;2.42;;;23.50;99.90;;;;;;4996562;28;20505;-79
2022/08/04 08:06:37;;;;;;;5.75;2.20;;;24.30;99.90;;;;;;4997424;28;20042;-79
2022/08/04 08:09:08;;;;;;;5.55;2.42;;;23.60;99.90;;;;;;4980298;28;20050;-79
2022/08/04 08:11:34;;;;;;;7.22;2.13;;;23.60;99.90;;;;;;4996319;28;20068;-84
2022/08/04 08:14:01;;;;;;;8.55;3.13;;;23.70;99.90;;;;;;4980496;28;20081;-79
2022/08/04 08:16:32;;;;;;;7.47;2.45;;;23.70;99.90;;;;;;4979973;28;20443;-78
2022/08/04 08:18:59;;;;;;;6.55;2.47;;;23.70;99.90;;;;;;4980169;28;20038;-79
2022/08/04 08:21:25;;;;;;;8.90;2.50;;;23.70;99.90;;;;;;4979844;28;20058;-76
2022/08/04 08:23:51;;;;;;;7.53;1.92;;;23.80;99.90;;;;;;4979732;28;20065;-81
2022/08/04 08:26:17;;;;;;;6.82;2.25;;;23.80;99.90;;;;;;4980373;28;20058;-80
2022/08/04 08:28:43;;;;;;;7.93;2.80;;;23.90;99.90;;;;;;4996908;28;20058;-82
2022/08/04 08:31:09;;;;;;;7.95;2.65;;;23.90;99.90;;;;;;4979987;28;20446;-81
2022/08/04 08:33:36;;;;;;;4.95;2.47;;;23.90;99.90;;;;;;4980617;28;20054;-77
2022/08/04 08:36:26;;;;;;;7.75;2.13;;;23.90;99.90;;;;;;4996827;28;20105;-81
2022/08/04 08:38:54;;;;;;;4.40;1.75;;;24.00;99.90;;;;;;4979654;28;20042;-82
2022/08/04 08:41:56;;;;;;;6.85;2.55;;;24.10;99.90;;;;;;4979952;28;20065;-81
2022/08/04 08:44:47;;;;;;;8.80;2.53;;;24.10;99.90;;;;;;4992673;28;20057;-80
2022/08/04 08:47:37;;;;;;;4.85;2.20;;;24.30;99.90;;;;;;4978921;28;20089;-81
2022/08/04 08:50:21;;;;;;;9.68;2.28;;;24.30;99.90;;;;;;4996018;28;20060;-81
2022/08/04 08:53:12;;;;;;;7.78;2.53;;;24.40;99.90;;;;;;4995995;28;20133;-81
2022/08/04 08:56:15;;;;;;;7.35;2.30;;;24.50;99.90;;;;;;4995661;28;20492;-79
2022/08/04 08:59:09;;;;;;;6.57;2.22;;;24.60;99.90;;;;;;4978833;28;20054;-79
2022/08/04 09:02:19;;;;;;;7.72;2.30;;;24.60;99.90;;;;;;4979016;28;20085;-77
2022/08/04 09:05:21;;;;;;;8.07;2.13;;;24.70;99.90;;;;;;4964358;28;20573;-78
2022/08/04 09:08:11;;;;;;;6.07;1.95;;;24.80;99.90;;;;;;4996296;28;20050;-78
2022/08/04 09:10:50;;;;;;;4.85;1.90;;;24.80;99.90;;;;;;4994858;28;20062;-78
2022/08/04 09:13:54;;;;;;;5.38;1.77;;;24.80;99.90;;;;;;4994678;28;20042;-81
2022/08/04 09:16:52;;;;;;;8.07;1.88;;;25.10;99.90;;;;;;4978486;28;20046;-79
2022/08/04 09:19:44;;;;;;;6.50;1.95;;;25.00;99.90;;;;;;4978060;28;20046;-80
2022/08/04 09:22:42;;;;;;;8.30;1.80;;;25.00;99.90;;;;;;4978419;28;20054;-80
2022/08/04 09:25:16;;;;;;;4.88;1.58;;;25.10;99.90;;;;;;4980996;28;20162;-79
2022/08/04 09:27:54;;;;;;;5.88;2.20;;;25.20;99.90;;;;;;4994509;28;20065;-88
2022/08/04 09:30:36;;;;;;;4.13;1.95;;;25.40;99.90;;;;;;4994879;28;20113;-83
2022/08/04 09:33:40;;;;;;;6.57;1.73;;;25.60;99.90;;;;;;4995083;28;20088;-84
2022/08/04 09:36:34;;;;;;;5.70;1.50;;;25.80;99.90;;;;;;4941940;28;20068;-83
2022/08/04 09:39:35;;;;;;;4.18;1.40;;;25.90;99.90;;;;;;4977511;28;20053;-83
2022/08/04 09:42:22;;;;;;;7.40;1.60;;;26.20;99.90;;;;;;4978782;28;20116;-83
2022/08/04 09:44:52;;;;;;;7.25;1.70;;;26.20;99.90;;;;;;4994633;28;20050;-82
2022/08/04 09:47:34;;;;;;;5.75;1.42;;;26.50;99.90;;;;;;4978701;28;20509;-83
2022/08/04 09:50:28;;;;;;;5.28;1.35;;;26.70;99.90;;;;;;4993171;28;20116;-82
2022/08/04 09:53:24;;;;;;;5.90;1.38;;;26.60;99.90;;;;;;4993651;28;20058;-88
2022/08/04 09:56:23;;;;;;;4.82;1.33;;;26.60;99.90;;;;;;4994772;28;20210;-80
2022/08/04 09:58:49;;;;;;;4.07;1.52;;;26.80;99.90;;;;;;4953382;28;20058;-79
2022/08/04 10:01:27;;;;;;;3.47;1.50;;;26.60;99.90;;;;;;4994341;28;20427;-83
2022/08/04 10:04:06;;;;;;;5.47;1.90;;;26.70;99.90;;;;;;4994365;28;20061;-81
2022/08/04 10:06:56;;;;;;;5.88;1.67;;;26.80;99.90;;;;;;4995912;28;20093;-80
2022/08/04 10:09:31;;;;;;;5.65;1.55;;;26.90;99.90;;;;;;4993982;28;20046;-80
2022/08/04 10:12:00;;;;;;;6.95;1.92;;;27.00;99.90;;;;;;4992851;28;20105;-85
2022/08/04 10:15:22;;;;;;;3.10;1.10;;;27.00;99.90;;;;;;4994461;28;20133;-83
2022/08/04 10:18:09;;;;;;;4.95;1.42;;;27.20;99.90;;;;;;4987509;28;20057;-82
2022/08/04 10:20:59;;;;;;;6.22;1.48;;;27.30;99.90;;;;;;4977672;28;20046;-81
2022/08/04 10:23:44;;;;;;;4.30;1.23;;;27.20;99.90;;;;;;4994005;28;20491;-78
2022/08/04 10:26:26;;;;;;;5.18;1.88;;;27.10;99.90;;;;;;4977705;28;20108;-80
2022/08/04 10:29:11;;;;;;;6.18;1.67;;;27.50;99.90;;;;;;4994682;28;20493;-80
2022/08/04 10:31:52;;;;;;;5.60;2.03;;;27.60;99.90;;;;;;4994201;28;20143;-83
2022/08/04 10:34:23;;;;;;;7.67;2.33;;;27.40;99.90;;;;;;4994827;28;20042;-83
2022/08/04 10:37:08;;;;;;;5.30;2.70;;;27.70;99.90;;;;;;4994740;28;20050;-86
2022/08/04 10:40:35;;;;;;;8.52;3.50;;;27.50;99.90;;;;;;4979208;28;20061;-81
2022/08/04 10:42:36;;;;;;;5.40;2.83;;;27.60;99.90;;;;;;4993638;28;20494;-84
2022/08/04 10:45:13;;;;;;;6.80;3.17;;;27.50;99.90;;;;;;4978398;28;20050;-81
2022/08/04 10:47:50;;;;;;;6.15;3.38;;;27.60;99.90;;;;;;4994055;28;20050;-86
2022/08/04 10:50:18;;;;;;;7.90;3.08;;;27.30;99.90;;;;;;4978362;28;20455;-85
2022/08/04 10:52:54;;;;;;;5.47;3.03;;;27.30;99.90;;;;;;4977171;28;20054;-84
2022/08/04 10:55:29;;;;;;;5.90;3.53;;;27.40;99.90;;;;;;4996437;28;20057;-77
2022/08/04 10:57:59;;;;;;;6.35;2.42;;;27.40;99.90;;;;;;4977599;28;20038;-81
2022/08/04 11:00:27;;;;;;;5.53;2.55;;;27.50;99.90;;;;;;4977757;28;20054;-82
2022/08/04 11:03:14;;;;;;;4.38;2.85;;;27.20;99.90;;;;;;4992506;28;20137;-83
2022/08/04 11:06:01;;;;;;;7.57;2.30;;;27.40;99.90;;;;;;4992509;28;20050;-85
2022/08/04 11:08:43;;;;;;;7.75;3.25;;;27.40;99.90;;;;;;4977276;28;20442;-86
2022/08/04 11:11:23;;;;;;;5.85;2.40;;;27.40;99.90;;;;;;4992797;28;20053;-84
2022/08/04 11:13:55;;;;;;;4.40;2.22;;;27.40;99.90;;;;;;4993794;28;20050;-80
2022/08/04 11:16:34;;;;;;;5.00;2.28;;;27.40;99.90;;;;;;4977639;28;20133;-85
2022/08/04 11:19:19;;;;;;;5.63;2.20;;;27.30;99.90;;;;;;4993533;28;20149;-80
2022/08/04 11:21:57;;;;;;;5.03;2.10;;;27.60;99.90;;;;;;4993877;28;20043;-83
2022/08/04 11:24:49;;;;;;;3.13;1.92;;;27.50;99.90;;;;;;4994195;28;20046;-82
2022/08/04 11:27:24;;;;;;;4.70;1.80;;;27.40;99.90;;;;;;4994187;28;20121;-82
2022/08/04 11:30:02;;;;;;;5.53;1.75;;;27.50;99.90;;;;;;4977097;28;20146;-82
2022/08/04 11:33:19;;;;;;;3.35;1.50;;;27.50;99.90;;;;;;4993593;28;20110;-81
2022/08/04 11:35:56;;;;;;;4.78;1.58;;;27.50;99.90;;;;;;4992990;28;20046;-84
2022/08/04 11:38:47;;;;;;;5.38;1.52;;;27.40;99.90;;;;;;4977169;28;20046;-85
2022/08/04 11:41:19;;;;;;;2.38;1.30;;;27.40;99.90;;;;;;4993180;28;20053;-82
2022/08/04 11:43:57;;;;;;;6.00;1.40;;;27.40;99.90;;;;;;4993995;28;20129;-82
2022/08/04 11:46:38;;;;;;;3.72;1.00;;;27.50;99.90;;;;;;4977252;28;20050;-85
2022/08/04 11:49:10;;;;;;;3.50;1.08;;;27.30;99.90;;;;;;4993890;28;20051;-83
2022/08/04 11:51:37;;;;;;;4.53;1.20;;;27.30;99.90;;;;;;4993758;28;20046;-82
2022/08/04 11:54:04;;;;;;;5.70;1.27;;;27.50;99.90;;;;;;4976520;28;20046;-84
2022/08/04 11:56:30;;;;;;;3.47;1.00;;;27.40;99.90;;;;;;4976557;28;20046;-83
2022/08/04 11:58:58;;;;;;;6.35;1.02;;;27.40;99.90;;;;;;4992513;28;20038;-82
2022/08/04 12:01:27;;;;;;;5.20;1.00;;;27.40;99.90;;;;;;4977055;28;20085;-79
2022/08/04 12:03:55;;;;;;;4.35;1.17;;;27.30;99.90;;;;;;4992997;28;20493;-83
2022/08/04 12:06:37;;;;;;;5.18;1.08;;;27.40;99.90;;;;;;4993122;28;20046;-85
2022/08/04 12:09:18;;;;;;;3.88;1.10;;;27.30;99.90;;;;;;4977117;28;20046;-85
2022/08/04 12:12:09;;;;;;;5.40;1.30;;;27.20;99.90;;;;;;4976352;28;20058;-83
2022/08/04 12:14:57;;;;;;;4.32;1.30;;;27.00;99.90;;;;;;4993708;28;20038;-82
2022/08/04 12:17:51;;;;;;;6.05;1.40;;;26.80;99.90;;;;;;4993069;28;20041;-84
2022/08/04 12:20:21;;;;;;;5.30;1.20;;;26.70;99.90;;;;;;4992334;28;20042;-85
2022/08/04 12:22:49;;;;;;;6.38;1.40;;;26.70;99.90;;;;;;4995184;28;20050;-83
2022/08/04 12:25:22;;;;;;;6.88;1.10;;;26.80;99.90;;;;;;4980178;28;20050;-82
2022/08/04 12:27:58;;;;;;;4.28;1.52;;;26.70;99.90;;;;;;4980929;28;20386;-81
2022/08/04 12:30:29;;;;;;;6.60;1.42;;;26.70;99.90;;;;;;4979991;28;20086;-85
2022/08/04 12:33:08;;;;;;;3.47;1.45;;;26.70;99.90;;;;;;4964617;28;20085;-86
2022/08/04 12:35:42;;;;;;;2.83;1.20;;;26.60;99.90;;;;;;4996142;28;20042;-85
2022/08/04 12:38:13;;;;;;;3.15;0.73;;;26.60;99.90;;;;;;4996602;28;20082;-85
2022/08/04 12:40:54;;;;;;;4.15;0.90;;;26.70;99.90;;;;;;4980100;28;20081;-81
2022/08/04 12:43:41;;;;;;;5.13;0.90;;;26.70;99.90;;;;;;4995963;28;20050;-81
2022/08/04 12:46:10;;;;;;;1.80;0.80;;;26.50;99.90;;;;;;4979410;28;20145;-81
2022/08/04 12:48:38;;;;;;;4.40;0.70;;;26.70;99.90;;;;;;4979637;28;20042;-78
2022/08/04 12:51:09;;;;;;;2.35;0.80;;;26.40;99.90;;;;;;4979290;28;20046;-79
2022/08/04 12:53:39;;;;;;;4.10;1.20;;;26.70;99.90;;;;;;4995874;28;20039;-81
2022/08/04 12:56:07;;;;;;;3.08;0.63;;;26.50;99.90;;;;;;4979311;28;20093;-80
2022/08/04 12:58:48;;;;;;;1.42;0.60;;;26.20;99.90;;;;;;4980077;28;20046;-80
2022/08/04 13:01:22;;;;;;;1.50;0.68;;;26.20;99.90;;;;;;4979767;28;20112;-81
2022/08/04 13:04:16;;;;;;;1.27;0.70;;;26.10;99.90;;;;;;4980299;28;20089;-84
2022/08/04 13:06:49;;;;;;;2.10;0.80;;;25.90;99.90;;;;;;4979687;28;20049;-81
2022/08/04 13:09:19;;;;;;;1.73;0.88;;;25.80;99.90;;;;;;5012211;28;20486;-81
2022/08/04 13:12:21;;;;;;;5.22;1.20;;;25.70;99.90;;;;;;4995353;28;20060;-81
2022/08/04 13:14:57;;;;;;;1.95;0.88;;;25.70;99.90;;;;;;4955089;28;20492;-72
2022/08/04 13:17:24;;;;;;;2.08;0.73;;;25.60;99.90;;;;;;4995376;28;20552;-74
2022/08/04 13:19:51;;;;;;;1.02;0.90;;;25.10;99.90;;;;;;4997101;28;20093;-76
2022/08/04 13:22:26;;;;;;;2.63;0.70;;;24.80;99.90;;;;;;4979927;28;20374;-76
2022/08/04 13:24:52;;;;;;;3.78;0.90;;;24.80;99.90;;;;;;4978963;28;20046;-76
2022/08/04 13:27:19;;;;;;;4.38;0.95;;;24.40;99.90;;;;;;4978737;28;20470;-77
2022/08/04 13:29:48;;;;;;;2.00;0.90;;;24.40;99.90;;;;;;4962959;28;20124;-77
2022/08/04 13:32:21;;;;;;;1.48;0.70;;;24.30;99.90;;;;;;4995410;28;20046;-78
2022/08/04 13:34:49;;;;;;;3.70;0.82;;;24.20;99.90;;;;;;4995293;28;20082;-78